createdAt,value
2018-10-06T00:00:02.884Z,10.1
2018-10-06T00:05:02.385Z,10.1
2018-10-06T00:10:03.110Z,10.1
2018-10-06T00:15:02.747Z,10.1
2018-10-06T00:20:02.459Z,10.0
2018-10-06T00:25:02.988Z,9.8
2018-10-06T00:30:02.583Z,10.0
2018-10-06T00:35:03.234Z,10.0
2018-10-06T00:40:02.979Z,10.0
2018-10-06T00:45:02.621Z,10.0
2018-10-06T00:50:03.213Z,9.8
2018-10-06T00:55:02.817Z,9.8
2018-10-06T01:00:02.443Z,9.6
2018-10-06T01:05:03.111Z,9.8
2018-10-06T01:10:02.782Z,9.6
2018-10-06T01:15:02.370Z,9.6
2018-10-06T01:20:03.026Z,9.5
2018-10-06T01:25:02.813Z,9.5
2018-10-06T01:30:02.500Z,9.3
2018-10-06T01:35:03.176Z,9.3
2018-10-06T01:40:02.834Z,9.1
2018-10-06T01:45:02.489Z,9.1
2018-10-06T01:50:03.159Z,9.1
2018-10-06T01:55:02.515Z,9.1
2018-10-06T02:00:03.221Z,9.0
2018-10-06T02:05:02.820Z,9.1
2018-10-06T02:10:02.479Z,9.0
2018-10-06T02:15:03.020Z,9.0
2018-10-06T02:20:02.620Z,9.0
2018-10-06T02:25:03.237Z,9.0
2018-10-06T02:30:03.042Z,9.0
2018-10-06T02:35:02.360Z,9.0
2018-10-06T02:40:03.081Z,9.0
2018-10-06T02:45:02.647Z,9.0
2018-10-06T02:50:03.246Z,9.1
2018-10-06T02:55:02.815Z,9.0
2018-10-06T03:00:02.408Z,9.0
2018-10-06T03:05:03.078Z,9.1
2018-10-06T03:10:02.710Z,9.1
2018-10-06T03:15:02.325Z,9.1
2018-10-06T03:20:02.935Z,9.0
2018-10-06T03:25:02.552Z,9.0
2018-10-06T03:30:03.131Z,9.0
2018-10-06T03:35:02.788Z,9.0
2018-10-06T03:40:02.468Z,9.0
2018-10-06T03:45:03.025Z,9.1
2018-10-06T03:50:02.696Z,9.1
2018-10-06T03:55:02.303Z,9.1
2018-10-06T04:00:02.970Z,9.1
2018-10-06T04:05:02.499Z,9.1
2018-10-06T04:10:03.164Z,9.3
2018-10-06T04:15:02.749Z,9.1
2018-10-06T04:20:03.316Z,9.1
2018-10-06T04:25:02.888Z,9.1
2018-10-06T04:30:03.142Z,9.1
2018-10-06T04:35:02.713Z,9.1
2018-10-06T04:40:02.373Z,9.3
2018-10-06T04:45:02.967Z,9.3
2018-10-06T04:50:02.714Z,9.6
2018-10-06T04:55:02.416Z,9.5
2018-10-06T05:00:03.390Z,9.5
2018-10-06T05:05:02.871Z,9.5
2018-10-06T05:10:03.006Z,9.3
2018-10-06T05:15:03.151Z,9.3
2018-10-06T05:20:02.801Z,9.3
2018-10-06T05:25:02.827Z,9.3
2018-10-06T05:30:02.949Z,9.1
2018-10-06T05:35:02.817Z,9.1
2018-10-06T05:40:02.574Z,9.1
2018-10-06T05:45:03.205Z,9.3
2018-10-06T05:50:02.813Z,9.3
2018-10-06T05:55:02.417Z,9.3
2018-10-06T06:00:03.030Z,9.5
2018-10-06T06:05:02.593Z,9.6
2018-10-06T06:10:02.436Z,9.6
2018-10-06T06:15:02.887Z,9.6
2018-10-06T06:20:02.509Z,10.0
2018-10-06T06:25:03.143Z,10.0
2018-10-06T06:30:02.916Z,10.1
2018-10-06T06:35:02.500Z,10.3
2018-10-06T06:40:03.268Z,10.6
2018-10-06T06:45:02.868Z,10.8
2018-10-06T06:50:02.494Z,10.8
2018-10-06T06:55:03.197Z,11.0
2018-10-06T07:00:02.955Z,11.3
2018-10-06T07:05:02.587Z,11.6
2018-10-06T07:10:02.454Z,11.6
2018-10-06T07:15:03.044Z,11.6
2018-10-06T07:20:02.696Z,12.1
2018-10-06T07:25:02.293Z,12.8
2018-10-06T07:30:02.875Z,13.1
2018-10-06T07:35:02.613Z,13.5
2018-10-06T07:40:02.327Z,13.6
2018-10-06T07:45:03.127Z,14.1
2018-10-06T07:50:02.768Z,14.3
2018-10-06T07:55:02.415Z,15.0
2018-10-06T08:00:03.112Z,15.6
2018-10-06T08:05:02.765Z,16.2
2018-10-06T08:10:02.486Z,16.3
2018-10-06T08:15:03.233Z,17.1
2018-10-06T08:20:02.860Z,17.5
2018-10-06T08:25:02.576Z,17.8
2018-10-06T08:30:03.201Z,18.2
2018-10-06T08:35:02.755Z,18.7
2018-10-06T08:40:02.455Z,19.3
2018-10-06T08:45:03.019Z,19.3
2018-10-06T08:50:02.880Z,20.0
2018-10-06T08:55:02.483Z,19.2
2018-10-06T09:00:03.152Z,19.7
2018-10-06T09:05:02.775Z,20.0
2018-10-06T09:10:02.432Z,20.1
2018-10-06T09:15:03.013Z,20.6
2018-10-06T09:20:02.616Z,20.7
2018-10-06T09:25:03.233Z,20.8
2018-10-06T09:30:02.767Z,21.3
2018-10-06T09:35:02.425Z,22.3
2018-10-06T09:40:03.232Z,22.5
2018-10-06T09:45:02.849Z,21.5
2018-10-06T09:50:02.432Z,21.2
2018-10-06T09:55:03.033Z,21.2
2018-10-06T10:00:02.756Z,21.0
2018-10-06T10:05:02.485Z,21.7
2018-10-06T10:10:03.343Z,22.1
2018-10-06T10:15:02.954Z,21.2
2018-10-06T10:20:02.483Z,22.1
2018-10-06T10:25:03.110Z,21.7
2018-10-06T10:30:02.668Z,22.0
2018-10-06T10:35:03.232Z,22.1
2018-10-06T10:40:02.911Z,23.0
2018-10-06T10:45:02.592Z,22.7
2018-10-06T10:50:03.224Z,22.7
2018-10-06T10:55:02.885Z,23.2
2018-10-06T11:00:02.826Z,23.2
2018-10-06T11:05:02.465Z,23.8
2018-10-06T11:10:03.121Z,22.6
2018-10-06T11:15:02.691Z,23.2
2018-10-06T11:20:03.357Z,23.3
2018-10-06T11:25:02.923Z,23.2
2018-10-06T11:30:02.605Z,23.2
2018-10-06T11:35:03.321Z,23.3
2018-10-06T11:40:02.962Z,23.7
2018-10-06T11:45:02.632Z,22.6
2018-10-06T11:50:03.446Z,22.7
2018-10-06T11:55:03.182Z,23.7
2018-10-06T12:00:02.892Z,24.2
2018-10-06T12:05:02.611Z,23.7
2018-10-06T12:10:02.415Z,24.6
2018-10-06T12:15:03.060Z,24.5
2018-10-06T12:20:02.721Z,25.1
2018-10-06T12:25:02.455Z,24.7
2018-10-06T12:30:03.132Z,24.2
2018-10-06T12:35:02.983Z,24.6
2018-10-06T12:40:03.145Z,25.0
2018-10-06T12:45:02.788Z,25.0
2018-10-06T12:50:02.439Z,24.6
2018-10-06T12:55:03.110Z,25.3
2018-10-06T13:00:02.793Z,25.3
2018-10-06T13:05:02.821Z,24.8
2018-10-06T13:10:02.503Z,25.6
2018-10-06T13:15:03.136Z,25.8
2018-10-06T13:20:02.968Z,25.3
2018-10-06T13:25:02.561Z,26.7
2018-10-06T13:30:03.221Z,25.8
2018-10-06T13:35:02.860Z,26.1
2018-10-06T13:40:02.603Z,25.2
2018-10-06T13:45:03.299Z,25.6
2018-10-06T13:50:02.868Z,26.2
2018-10-06T13:55:02.526Z,26.7
2018-10-06T14:00:03.047Z,26.5
2018-10-06T14:05:02.655Z,26.7
2018-10-06T14:10:02.358Z,25.7
2018-10-06T14:15:03.011Z,24.2
2018-10-06T14:20:02.853Z,24.6
2018-10-06T14:25:02.508Z,25.1
2018-10-06T14:30:03.063Z,24.7
2018-10-06T14:35:02.671Z,24.5
2018-10-06T14:40:02.424Z,24.3
2018-10-06T14:45:03.006Z,24.5
2018-10-06T14:50:02.764Z,24.0
2018-10-06T14:55:02.810Z,23.7
2018-10-06T15:00:02.410Z,23.7
2018-10-06T15:05:03.075Z,23.7
2018-10-06T15:10:02.925Z,24.0
2018-10-06T15:15:02.641Z,23.8
2018-10-06T15:20:02.364Z,23.6
2018-10-06T15:25:03.001Z,23.0
2018-10-06T15:30:02.591Z,25.1
2018-10-06T15:35:03.335Z,26.0
2018-10-06T15:40:02.937Z,25.8
2018-10-06T15:45:02.649Z,25.3
2018-10-06T15:50:02.263Z,25.2
2018-10-06T15:55:02.826Z,24.7
2018-10-06T16:00:02.400Z,23.2
2018-10-06T16:05:02.997Z,22.7
2018-10-06T16:15:02.658Z,22.1
2018-10-06T16:20:02.356Z,22.0
2018-10-06T16:25:02.952Z,21.6
2018-10-06T16:30:02.584Z,21.3
2018-10-06T16:40:03.278Z,20.7
2018-10-06T16:45:02.927Z,20.6
2018-10-06T16:50:02.474Z,20.2
2018-10-06T16:55:03.011Z,20.0
2018-10-06T17:00:02.753Z,19.7
2018-10-06T17:05:02.522Z,19.5
2018-10-06T17:10:03.258Z,19.3
2018-10-06T17:15:02.889Z,19.2
2018-10-06T17:20:02.581Z,19.1
2018-10-06T17:25:03.234Z,19.0
2018-10-06T17:30:02.492Z,18.8
2018-10-06T17:35:03.146Z,18.6
2018-10-06T17:40:02.873Z,18.5
2018-10-06T17:45:02.589Z,18.2
2018-10-06T17:50:03.354Z,18.1
2018-10-06T17:55:02.471Z,17.8
2018-10-06T18:00:03.078Z,17.8
2018-10-06T18:05:02.797Z,17.7
2018-10-06T18:10:02.773Z,17.7
2018-10-06T18:15:02.454Z,17.7
2018-10-06T18:20:03.385Z,17.7
2018-10-06T18:25:02.374Z,17.8
2018-10-06T18:30:03.022Z,17.8
2018-10-06T18:35:02.688Z,17.7
2018-10-06T18:40:02.383Z,17.5
2018-10-06T18:45:03.102Z,17.3
2018-10-06T18:50:02.625Z,17.2
2018-10-06T18:55:03.338Z,17.1
2018-10-06T19:00:02.934Z,17.0
2018-10-06T19:05:02.792Z,17.0
2018-10-06T19:10:02.412Z,17.1
2018-10-06T19:15:02.785Z,17.0
2018-10-06T19:20:02.680Z,16.7
2018-10-06T19:25:02.297Z,16.7
2018-10-06T19:30:02.962Z,16.6
2018-10-06T19:35:02.547Z,16.3
2018-10-06T19:40:03.292Z,16.6
2018-10-06T19:45:02.960Z,16.6
2018-10-06T19:50:02.635Z,16.6
2018-10-06T19:55:03.221Z,16.6
2018-10-06T20:00:03.097Z,16.6
2018-10-06T20:05:02.849Z,16.6
2018-10-06T20:10:02.548Z,16.3
2018-10-06T20:15:03.130Z,16.3
2018-10-06T20:20:02.799Z,16.2
2018-10-06T20:25:02.499Z,16.2
2018-10-06T20:30:03.127Z,16.2
2018-10-06T20:35:02.764Z,16.2
2018-10-06T20:40:02.499Z,16.2
2018-10-06T20:45:03.662Z,16.0
2018-10-06T20:50:02.293Z,16.0
2018-10-06T20:55:02.828Z,16.0
2018-10-06T21:00:02.367Z,16.0
2018-10-06T21:05:03.063Z,15.8
2018-10-06T21:10:02.824Z,15.8
2018-10-06T21:15:02.399Z,15.5
2018-10-06T21:20:03.101Z,15.5
2018-10-06T21:25:02.762Z,15.5
2018-10-06T21:30:02.381Z,15.5
2018-10-06T21:35:03.105Z,15.5
2018-10-06T21:40:02.829Z,15.1
2018-10-06T21:45:02.422Z,15.1
2018-10-06T21:50:03.013Z,15.0
2018-10-06T21:55:02.646Z,14.8
2018-10-06T22:00:03.237Z,14.8
2018-10-06T22:05:03.054Z,14.6
2018-10-06T22:10:02.910Z,14.6
2018-10-06T22:15:02.598Z,14.5
2018-10-06T22:20:02.501Z,14.3
2018-10-06T22:25:03.203Z,14.3
2018-10-06T22:30:02.709Z,14.3
2018-10-06T22:35:02.449Z,14.1
2018-10-06T22:40:03.144Z,14.1
2018-10-06T22:45:02.740Z,14.0
2018-10-06T22:50:02.688Z,14.0
2018-10-06T22:55:02.321Z,13.8
2018-10-06T23:00:02.945Z,13.8
2018-10-06T23:05:02.457Z,13.8
2018-10-06T23:10:03.159Z,14.0
2018-10-06T23:15:02.814Z,14.0
2018-10-06T23:20:02.469Z,14.1
2018-10-06T23:25:03.148Z,14.1
2018-10-06T23:30:02.676Z,14.0
2018-10-06T23:35:02.368Z,14.0
2018-10-06T23:40:03.076Z,14.1
2018-10-06T23:45:02.707Z,14.0
2018-10-06T23:50:02.329Z,14.1
2018-10-06T23:55:02.921Z,14.1
